Tervuren, Belgium
Current Conditions -  °F | °C
As of 12:20 AM on Thursday 23 Oct 2014 (Local Time) from EBBR Reporting Station
Clear Clear  
Wind Chill: 46°   Ceiling: Unl
Heat Index: 48°   Visibility: 6mi
Dew Point: 43°   Wind: 6mph
Humidity: 82%   Direction: 230°SW
Pressure: 30.24"   Gusts: NA
Location:  50.82°N, 4.51°E
Report Text: EBBR 222220Z 23005KT CAVOK 09/06 Q1024 NOSIG
Loading
Personal Weather Stations






























Interactive Weather Map
Tropical Storm Tracking
New forecast layout! Learn more

10-Day Weather Forecast

Advertisements
Track Severe Weather on mobile